Time;durP1;ratioP1;P1;durP2;ratioP2;P2;SDS_P1;SDS_P2;PMS_P1;PMS_P2;Temp;Humidity;BMP_temperature;BMP_pressure;BME280_temperature;BME280_humidity;BME280_pressure;Samples;Min_cycle;Max_cycle;Signal;HPM_P1;HPM_P2
2023/05/07 00:01:53;;;;;;;1.50;1.00;;;16.20;98.20;;;;;;5022919;28;20508;-82
2023/05/07 00:04:20;;;;;;;1.50;0.90;;;16.20;98.20;;;;;;5031759;28;20471;-85
2023/05/07 00:06:47;;;;;;;1.50;0.90;;;16.20;98.20;;;;;;5025501;28;20827;-84
2023/05/07 00:09:14;;;;;;;1.40;0.90;;;16.20;98.20;;;;;;5029049;28;20485;-82
2023/05/07 00:11:40;;;;;;;1.50;1.00;;;16.20;98.20;;;;;;5033623;28;20476;-84
2023/05/07 00:14:09;;;;;;;1.40;0.90;;;16.10;98.20;;;;;;5028322;28;20472;-84
2023/05/07 00:16:35;;;;;;;1.50;0.93;;;16.10;98.20;;;;;;5003230;28;20781;-84
2023/05/07 00:19:02;;;;;;;1.50;0.90;;;16.00;98.20;;;;;;5036725;28;20477;-84
2023/05/07 00:21:30;;;;;;;1.47;0.90;;;16.00;98.20;;;;;;5006762;28;20496;-82
2023/05/07 00:23:57;;;;;;;1.50;0.90;;;15.90;98.20;;;;;;5039527;28;20560;-84
2023/05/07 00:26:23;;;;;;;1.43;0.90;;;15.90;98.20;;;;;;5003052;28;20898;-82
2023/05/07 00:28:50;;;;;;;1.50;0.90;;;15.90;98.20;;;;;;5043599;28;20492;-83
2023/05/07 00:31:18;;;;;;;1.47;1.00;;;15.90;98.20;;;;;;4999036;28;20488;-83
2023/05/07 00:33:45;;;;;;;1.50;0.90;;;15.90;98.20;;;;;;5046279;28;20461;-84
2023/05/07 00:36:11;;;;;;;1.50;1.10;;;15.90;98.20;;;;;;4995238;28;20483;-83
2023/05/07 00:38:39;;;;;;;1.50;0.90;;;15.90;98.20;;;;;;5050543;28;20473;-83
2023/05/07 00:41:06;;;;;;;1.50;1.00;;;15.90;98.20;;;;;;4988480;28;20508;-85
2023/05/07 00:43:33;;;;;;;1.47;0.90;;;15.90;98.20;;;;;;5042903;28;20478;-84
2023/05/07 00:46:00;;;;;;;1.50;1.00;;;15.90;98.20;;;;;;4989136;28;20462;-85
2023/05/07 00:48:28;;;;;;;1.47;0.90;;;15.90;98.20;;;;;;5045972;28;20489;-83
2023/05/07 00:50:55;;;;;;;1.50;1.00;;;15.90;98.20;;;;;;4982913;28;20847;-84
2023/05/07 00:53:22;;;;;;;1.50;1.00;;;15.90;98.20;;;;;;5048827;28;20481;-82
2023/05/07 00:55:49;;;;;;;1.47;0.90;;;15.90;98.20;;;;;;4981458;28;20552;-84
2023/05/07 00:58:17;;;;;;;1.40;0.90;;;15.90;98.20;;;;;;5065561;28;20482;-82
2023/05/07 01:00:44;;;;;;;1.50;1.00;;;15.90;98.20;;;;;;4990356;28;20697;-84
2023/05/07 01:03:10;;;;;;;1.43;0.90;;;15.90;98.20;;;;;;5048302;28;20484;-83
2023/05/07 01:05:39;;;;;;;1.47;0.90;;;15.90;98.20;;;;;;4993857;28;20977;-83
2023/05/07 01:08:06;;;;;;;1.50;1.00;;;15.90;98.20;;;;;;5059816;28;20769;-85
2023/05/07 01:10:33;;;;;;;1.47;1.00;;;15.90;98.20;;;;;;4989601;28;20465;-82
2023/05/07 01:13:00;;;;;;;1.43;1.00;;;15.80;98.20;;;;;;5056567;28;20480;-83
2023/05/07 01:15:27;;;;;;;1.47;0.90;;;15.80;98.20;;;;;;4988495;28;20514;-83
2023/05/07 01:17:54;;;;;;;1.50;1.00;;;15.80;98.20;;;;;;5048020;28;20871;-83
2023/05/07 01:20:21;;;;;;;1.50;0.93;;;15.70;98.20;;;;;;4987063;28;20502;-84
2023/05/07 01:22:50;;;;;;;1.50;0.90;;;15.70;98.20;;;;;;5061805;28;20476;-84
2023/05/07 01:25:17;;;;;;;1.50;1.00;;;15.70;98.20;;;;;;4990753;28;20460;-84
2023/05/07 01:27:44;;;;;;;1.50;1.10;;;15.70;98.20;;;;;;5062457;28;20509;-84
2023/05/07 01:30:12;;;;;;;1.50;1.00;;;15.70;98.20;;;;;;4994880;28;20491;-84
2023/05/07 01:32:43;;;;;;;1.50;1.00;;;15.70;98.20;;;;;;5047209;28;20485;-83
2023/05/07 01:35:12;;;;;;;1.50;1.20;;;15.70;98.20;;;;;;4991204;28;20552;-84
2023/05/07 01:37:40;;;;;;;1.50;1.10;;;15.70;98.20;;;;;;5052907;28;20491;-84
2023/05/07 01:40:10;;;;;;;1.50;1.00;;;15.70;98.20;;;;;;4974096;28;20469;-84
2023/05/07 01:42:37;;;;;;;1.50;0.90;;;15.60;98.20;;;;;;5045236;28;21071;-84
2023/05/07 01:45:04;;;;;;;1.50;1.00;;;15.60;98.20;;;;;;4990197;28;20465;-84
2023/05/07 01:47:31;;;;;;;1.50;1.00;;;15.60;98.20;;;;;;5038105;28;20488;-83
2023/05/07 01:49:58;;;;;;;1.40;0.90;;;15.60;98.20;;;;;;4992781;28;20466;-85
2023/05/07 01:52:25;;;;;;;1.50;0.90;;;15.60;98.20;;;;;;4983920;28;20987;-84
2023/05/07 01:54:52;;;;;;;1.47;0.90;;;15.60;98.20;;;;;;4967753;28;20466;-85
2023/05/07 01:57:20;;;;;;;1.50;1.00;;;15.60;98.20;;;;;;4992806;28;20869;-83
2023/05/07 01:59:47;;;;;;;1.50;0.97;;;15.60;98.20;;;;;;4972747;28;20462;-84
2023/05/07 02:02:14;;;;;;;1.50;1.00;;;15.60;98.20;;;;;;5032046;28;20479;-84
2023/05/07 02:04:41;;;;;;;1.50;1.00;;;15.60;98.20;;;;;;5010324;28;20457;-83
2023/05/07 02:07:07;;;;;;;1.50;1.00;;;15.50;98.20;;;;;;5029404;28;20545;-84
2023/05/07 02:09:34;;;;;;;1.50;1.00;;;15.50;98.20;;;;;;5009566;28;20492;-84
2023/05/07 02:12:01;;;;;;;1.50;1.00;;;15.50;98.20;;;;;;4987482;28;20557;-81
2023/05/07 02:14:29;;;;;;;1.50;1.00;;;15.50;98.20;;;;;;4994431;28;20611;-84
2023/05/07 02:16:56;;;;;;;1.50;1.00;;;15.50;98.20;;;;;;4998547;28;20486;-81
2023/05/07 02:19:23;;;;;;;1.50;0.90;;;15.40;98.20;;;;;;5020913;28;20465;-84
2023/05/07 02:21:50;;;;;;;1.50;1.00;;;15.40;98.20;;;;;;5030858;28;20869;-85
2023/05/07 02:24:17;;;;;;;1.50;0.90;;;15.40;98.20;;;;;;5025736;28;20460;-84
2023/05/07 02:26:44;;;;;;;1.50;1.07;;;15.40;98.20;;;;;;5018613;28;20468;-85
2023/05/07 02:29:11;;;;;;;1.50;0.90;;;15.30;98.20;;;;;;5010886;28;20492;-82
2023/05/07 02:31:39;;;;;;;1.50;1.00;;;15.30;98.20;;;;;;5017718;28;20476;-85
2023/05/07 02:34:06;;;;;;;1.50;1.00;;;15.20;98.20;;;;;;5018205;28;20464;-83
2023/05/07 02:36:33;;;;;;;1.50;1.00;;;15.20;98.20;;;;;;5026031;28;20518;-82
2023/05/07 02:39:00;;;;;;;1.50;1.00;;;15.10;98.20;;;;;;5025111;28;20472;-84
2023/05/07 02:41:27;;;;;;;1.50;0.90;;;15.10;98.20;;;;;;5017280;28;20483;-85
2023/05/07 02:43:54;;;;;;;1.50;1.10;;;15.00;98.20;;;;;;5005302;28;20961;-84
2023/05/07 02:46:21;;;;;;;1.50;1.00;;;15.00;98.20;;;;;;5017313;28;20476;-84
2023/05/07 02:48:49;;;;;;;1.60;1.10;;;15.00;98.20;;;;;;5032100;28;20511;-83
2023/05/07 02:51:17;;;;;;;1.50;1.00;;;14.90;98.20;;;;;;5014363;28;20487;-83
2023/05/07 02:53:44;;;;;;;1.50;1.00;;;14.90;98.20;;;;;;5034348;28;20471;-83
2023/05/07 02:56:10;;;;;;;1.50;0.90;;;14.90;98.20;;;;;;5015625;28;20480;-82
2023/05/07 02:58:39;;;;;;;1.50;1.00;;;14.80;98.20;;;;;;5039141;28;20484;-85
2023/05/07 03:01:06;;;;;;;1.50;1.00;;;14.80;98.20;;;;;;5033079;28;20493;-85
2023/05/07 03:03:32;;;;;;;1.50;1.07;;;14.80;98.20;;;;;;5004351;28;20468;-85
2023/05/07 03:06:01;;;;;;;1.50;1.00;;;14.80;98.20;;;;;;5001478;28;20477;-84
2023/05/07 03:08:28;;;;;;;1.50;1.07;;;14.80;98.20;;;;;;5021632;28;20836;-85
2023/05/07 03:10:54;;;;;;;1.50;1.10;;;14.70;98.20;;;;;;5001495;28;21005;-84
2023/05/07 03:13:21;;;;;;;1.50;1.00;;;14.70;98.20;;;;;;5017530;28;20837;-85
2023/05/07 03:15:48;;;;;;;1.50;1.00;;;14.70;98.20;;;;;;4997854;28;20467;-81
2023/05/07 03:18:15;;;;;;;1.50;1.10;;;14.70;98.20;;;;;;5038713;28;20913;-84
2023/05/07 03:20:42;;;;;;;1.50;1.00;;;14.70;98.20;;;;;;5008226;28;20464;-84
2023/05/07 03:23:10;;;;;;;1.50;1.00;;;14.70;98.20;;;;;;4997529;28;20480;-83
2023/05/07 03:25:37;;;;;;;1.50;1.00;;;14.70;98.20;;;;;;5007967;28;20467;-85
2023/05/07 03:28:03;;;;;;;1.50;1.00;;;14.70;98.20;;;;;;5027819;28;20988;-83
2023/05/07 03:30:30;;;;;;;1.50;0.97;;;14.70;98.20;;;;;;5010251;28;20472;-86
2023/05/07 03:32:57;;;;;;;1.50;1.00;;;14.60;98.20;;;;;;5006683;28;20838;-85
2023/05/07 03:35:24;;;;;;;1.50;1.00;;;14.60;98.20;;;;;;5010599;28;20957;-84
2023/05/07 03:37:51;;;;;;;1.50;1.00;;;14.60;98.20;;;;;;5021312;28;20480;-85
2023/05/07 03:40:19;;;;;;;1.50;1.00;;;14.60;98.20;;;;;;5021456;28;20468;-84
2023/05/07 03:42:46;;;;;;;1.50;1.00;;;14.60;98.20;;;;;;5000876;28;21148;-85
2023/05/07 03:45:13;;;;;;;1.50;1.10;;;14.60;98.20;;;;;;4999801;28;20468;-81
2023/05/07 03:47:40;;;;;;;1.50;1.00;;;14.60;98.20;;;;;;5006051;28;20483;-84
2023/05/07 03:50:07;;;;;;;1.50;1.10;;;14.60;98.20;;;;;;4992427;28;20461;-83
2023/05/07 03:52:34;;;;;;;1.50;1.00;;;14.70;98.20;;;;;;4996347;28;20489;-81
2023/05/07 03:55:02;;;;;;;1.50;1.00;;;14.70;98.20;;;;;;4990800;28;20547;-84
2023/05/07 03:57:30;;;;;;;1.50;1.00;;;14.70;98.20;;;;;;4993639;28;20505;-84
2023/05/07 03:59:57;;;;;;;1.50;1.00;;;14.70;98.20;;;;;;4994910;28;20875;-83
2023/05/07 04:02:25;;;;;;;1.50;1.00;;;14.70;98.20;;;;;;4988576;28;20492;-84
2023/05/07 04:04:53;;;;;;;1.50;1.00;;;14.70;98.20;;;;;;5007077;28;20468;-83
2023/05/07 04:07:20;;;;;;;1.50;1.00;;;14.70;98.20;;;;;;4991065;28;21043;-82
2023/05/07 04:09:46;;;;;;;1.50;1.00;;;14.70;98.20;;;;;;4992011;28;20494;-82
2023/05/07 04:12:13;;;;;;;1.50;1.00;;;14.70;98.20;;;;;;4994722;28;20480;-85
2023/05/07 04:14:41;;;;;;;1.50;1.00;;;14.70;98.20;;;;;;4996247;28;20507;-84
2023/05/07 04:17:09;;;;;;;1.50;1.00;;;14.70;98.20;;;;;;4997942;28;20486;-84
2023/05/07 04:19:36;;;;;;;1.50;1.00;;;14.70;98.20;;;;;;5003471;28;20538;-83
2023/05/07 04:22:03;;;;;;;1.50;1.00;;;14.70;98.20;;;;;;5005489;28;20550;-82
2023/05/07 04:24:32;;;;;;;1.47;1.00;;;14.70;98.20;;;;;;4996489;28;21000;-84
2023/05/07 04:26:59;;;;;;;1.50;1.00;;;14.80;98.20;;;;;;4982989;28;20492;-84
2023/05/07 04:29:27;;;;;;;1.50;1.00;;;14.80;98.20;;;;;;4998346;28;20732;-85
2023/05/07 04:31:56;;;;;;;1.50;1.00;;;14.80;98.20;;;;;;5001297;28;20484;-84
2023/05/07 04:34:23;;;;;;;1.43;1.00;;;14.90;98.20;;;;;;5004399;28;20574;-83
2023/05/07 04:36:55;;;;;;;1.50;1.03;;;14.90;98.20;;;;;;5004502;28;20491;-82
2023/05/07 04:39:21;;;;;;;1.50;1.10;;;15.00;98.20;;;;;;4999745;28;20989;-84
2023/05/07 04:41:49;;;;;;;1.50;0.97;;;15.00;98.20;;;;;;4991607;28;20535;-83
2023/05/07 04:44:16;;;;;;;1.50;1.00;;;15.00;98.20;;;;;;4996301;28;20461;-82
2023/05/07 04:46:44;;;;;;;1.50;1.00;;;15.00;98.20;;;;;;5002856;28;20993;-84
2023/05/07 04:49:12;;;;;;;1.50;1.00;;;15.00;98.20;;;;;;4996004;28;20520;-85
2023/05/07 04:51:42;;;;;;;1.50;1.00;;;15.00;98.20;;;;;;4995130;28;20531;-84
2023/05/07 04:54:09;;;;;;;1.50;1.00;;;15.00;98.20;;;;;;5000211;28;20460;-82
2023/05/07 04:56:36;;;;;;;1.50;1.00;;;15.00;98.20;;;;;;5001024;28;20495;-84
2023/05/07 04:59:02;;;;;;;1.50;1.00;;;15.10;98.20;;;;;;4997770;28;20578;-84
2023/05/07 05:01:29;;;;;;;1.50;1.00;;;15.10;98.20;;;;;;5001985;28;20493;-81
2023/05/07 05:03:56;;;;;;;1.50;1.00;;;15.10;98.20;;;;;;5008949;28;20469;-84
2023/05/07 05:06:24;;;;;;;1.50;0.90;;;15.10;98.20;;;;;;4993651;28;20498;-83
2023/05/07 05:08:51;;;;;;;1.50;1.00;;;15.20;98.20;;;;;;4998726;28;20484;-81
2023/05/07 05:11:18;;;;;;;1.50;0.90;;;15.20;98.20;;;;;;5008826;28;20486;-82
2023/05/07 05:13:47;;;;;;;1.50;1.00;;;15.30;98.20;;;;;;5002444;28;20460;-83
2023/05/07 05:16:14;;;;;;;1.50;1.00;;;15.30;98.20;;;;;;4997782;28;20476;-80
2023/05/07 05:18:40;;;;;;;1.50;1.07;;;15.30;98.20;;;;;;5007235;28;20484;-84
2023/05/07 05:21:07;;;;;;;1.50;1.00;;;15.30;98.20;;;;;;4995300;28;20510;-80
2023/05/07 05:23:36;;;;;;;1.50;1.00;;;15.30;98.20;;;;;;5004048;28;20820;-81
2023/05/07 05:26:02;;;;;;;1.50;0.90;;;15.30;98.20;;;;;;4991539;28;20461;-84
2023/05/07 05:28:29;;;;;;;1.50;1.00;;;15.40;98.20;;;;;;4998901;28;20491;-83
2023/05/07 05:30:56;;;;;;;1.50;1.00;;;15.40;98.20;;;;;;4989522;28;20471;-82
2023/05/07 05:33:23;;;;;;;1.50;1.00;;;15.40;98.20;;;;;;4995832;28;20477;-83
2023/05/07 05:35:55;;;;;;;1.50;1.00;;;15.50;98.20;;;;;;4992937;28;20472;-81
2023/05/07 05:38:22;;;;;;;1.50;1.00;;;15.50;98.20;;;;;;5007740;28;20485;-84
2023/05/07 05:40:50;;;;;;;1.50;1.00;;;15.50;98.20;;;;;;4997827;28;20460;-83
2023/05/07 05:43:17;;;;;;;1.50;0.90;;;15.60;98.20;;;;;;5003576;28;20465;-83
2023/05/07 05:45:44;;;;;;;1.50;0.90;;;15.60;98.20;;;;;;5016835;28;20461;-85
2023/05/07 05:48:10;;;;;;;1.50;1.00;;;15.60;98.20;;;;;;4994370;28;20511;-83
2023/05/07 05:50:37;;;;;;;1.50;1.00;;;15.70;98.20;;;;;;5002074;28;20499;-84
2023/05/07 05:53:04;;;;;;;1.50;1.00;;;15.70;98.20;;;;;;4987729;28;20480;-83
2023/05/07 05:55:32;;;;;;;1.50;1.00;;;15.70;98.20;;;;;;4994851;28;20489;-84
2023/05/07 05:58:00;;;;;;;1.50;1.00;;;15.80;98.20;;;;;;4991396;28;20487;-83
2023/05/07 06:00:27;;;;;;;1.50;0.90;;;15.90;98.20;;;;;;5013358;28;20831;-82
2023/05/07 06:02:54;;;;;;;1.50;1.10;;;15.90;98.20;;;;;;4994901;28;20476;-83
2023/05/07 06:05:20;;;;;;;1.47;0.90;;;16.00;98.20;;;;;;5001021;28;20454;-82
2023/05/07 06:07:47;;;;;;;1.50;1.00;;;16.10;98.20;;;;;;4996076;28;20558;-84
2023/05/07 06:10:14;;;;;;;1.50;1.00;;;16.10;98.20;;;;;;4997671;28;20481;-85
2023/05/07 06:12:41;;;;;;;1.50;0.90;;;16.10;98.20;;;;;;5004697;28;21032;-80
2023/05/07 06:15:10;;;;;;;1.50;0.90;;;16.20;98.20;;;;;;5004343;28;20467;-82
2023/05/07 06:17:37;;;;;;;1.50;1.00;;;16.30;98.20;;;;;;5009898;28;20483;-83
2023/05/07 06:20:05;;;;;;;1.50;0.97;;;16.30;98.20;;;;;;5005192;28;20457;-83
2023/05/07 06:22:31;;;;;;;1.50;0.90;;;16.40;98.20;;;;;;5015040;28;20488;-83
2023/05/07 06:24:58;;;;;;;1.50;1.00;;;16.40;98.20;;;;;;5004366;28;20746;-83
2023/05/07 06:27:25;;;;;;;1.50;1.00;;;16.50;98.20;;;;;;4996240;28;20485;-84
2023/05/07 06:29:52;;;;;;;1.47;0.90;;;16.60;98.20;;;;;;5002049;28;20495;-84
2023/05/07 06:32:20;;;;;;;1.50;1.00;;;16.70;98.20;;;;;;5010403;28;20471;-84
2023/05/07 06:34:47;;;;;;;1.50;0.90;;;16.80;98.20;;;;;;5001119;28;20480;-83
2023/05/07 06:37:14;;;;;;;1.50;0.90;;;16.90;98.20;;;;;;4991997;28;20477;-81
2023/05/07 06:39:41;;;;;;;1.50;0.90;;;17.00;98.20;;;;;;5003631;28;20456;-83
2023/05/07 06:42:07;;;;;;;1.50;0.90;;;17.20;98.20;;;;;;4991326;28;20487;-82
2023/05/07 06:44:34;;;;;;;1.50;1.00;;;17.30;98.20;;;;;;4999187;28;20456;-83
2023/05/07 06:47:01;;;;;;;1.50;0.90;;;17.40;98.20;;;;;;4992482;28;20488;-81
2023/05/07 06:49:29;;;;;;;1.50;1.00;;;17.50;98.20;;;;;;4996008;28;20853;-83
2023/05/07 06:51:56;;;;;;;1.50;0.90;;;17.60;98.20;;;;;;5000424;28;20586;-85
2023/05/07 06:54:24;;;;;;;2.73;2.33;;;17.70;98.20;;;;;;5002721;28;20468;-82
2023/05/07 06:56:50;;;;;;;1.50;0.90;;;17.80;98.20;;;;;;4993821;28;21021;-84
2023/05/07 06:59:17;;;;;;;1.50;1.00;;;17.80;98.20;;;;;;5000382;28;20488;-83
2023/05/07 07:01:44;;;;;;;1.50;1.00;;;17.90;98.20;;;;;;4998350;28;21030;-81
2023/05/07 07:04:11;;;;;;;1.53;1.10;;;17.90;98.20;;;;;;4997811;28;20466;-85
2023/05/07 07:06:39;;;;;;;1.60;1.00;;;18.00;98.20;;;;;;4990869;28;20489;-82
2023/05/07 07:09:06;;;;;;;1.50;0.90;;;18.20;98.20;;;;;;4998610;28;20616;-83
2023/05/07 07:11:32;;;;;;;1.50;0.90;;;18.40;98.20;;;;;;5005573;28;20876;-82
2023/05/07 07:13:59;;;;;;;1.50;0.90;;;18.50;98.20;;;;;;5001846;28;20465;-85
2023/05/07 07:16:26;;;;;;;1.50;0.90;;;18.60;98.20;;;;;;4990578;28;20498;-83
2023/05/07 07:18:53;;;;;;;1.50;0.90;;;18.70;98.20;;;;;;5012251;28;20490;-82
2023/05/07 07:21:20;;;;;;;1.50;0.90;;;18.70;98.20;;;;;;4992329;28;21229;-84
2023/05/07 07:23:48;;;;;;;1.50;0.90;;;18.70;98.20;;;;;;4993484;28;20465;-82
2023/05/07 07:26:14;;;;;;;1.50;0.90;;;18.90;98.20;;;;;;4987629;28;20483;-81
2023/05/07 07:28:44;;;;;;;1.50;0.90;;;19.00;98.20;;;;;;4987205;28;20508;-81
2023/05/07 07:31:11;;;;;;;1.50;0.90;;;19.20;98.20;;;;;;4993564;28;20476;-81
2023/05/07 07:33:38;;;;;;;1.50;1.00;;;19.30;98.20;;;;;;4987768;28;20469;-80
2023/05/07 07:36:07;;;;;;;1.50;0.90;;;19.40;98.20;;;;;;4996820;28;20458;-80
2023/05/07 07:38:33;;;;;;;1.80;1.43;;;19.60;98.20;;;;;;5002587;28;20477;-82
2023/05/07 07:41:02;;;;;;;1.50;0.90;;;19.80;98.20;;;;;;4993059;28;20856;-82
2023/05/07 07:43:29;;;;;;;1.50;0.87;;;20.00;98.20;;;;;;5005781;28;20459;-80
2023/05/07 07:45:56;;;;;;;1.50;0.90;;;20.20;98.20;;;;;;4990398;28;20468;-81
2023/05/07 07:48:23;;;;;;;1.50;0.90;;;20.40;98.20;;;;;;5002833;28;20496;-81
2023/05/07 07:50:50;;;;;;;1.50;0.90;;;20.50;98.20;;;;;;4979500;28;20492;-81
2023/05/07 07:53:17;;;;;;;1.50;0.90;;;20.60;98.20;;;;;;4993421;28;20469;-79
2023/05/07 07:55:44;;;;;;;1.63;1.03;;;20.60;98.20;;;;;;5002908;28;20470;-81
2023/05/07 07:58:12;;;;;;;1.50;0.90;;;20.70;98.20;;;;;;4983053;28;20477;-79
2023/05/07 08:00:39;;;;;;;1.50;0.90;;;20.80;98.20;;;;;;4988639;28;20514;-80
2023/05/07 08:03:07;;;;;;;1.50;0.90;;;20.80;98.20;;;;;;4978344;28;21038;-83
2023/05/07 08:05:33;;;;;;;1.50;0.90;;;20.90;98.20;;;;;;4990818;28;20587;-81
2023/05/07 08:08:00;;;;;;;1.50;0.90;;;21.00;98.20;;;;;;4989311;28;20481;-80
2023/05/07 08:10:27;;;;;;;1.50;0.90;;;21.00;98.20;;;;;;4995504;28;20490;-79
2023/05/07 08:12:54;;;;;;;1.50;0.90;;;21.20;98.20;;;;;;4991469;28;20485;-79
2023/05/07 08:15:23;;;;;;;1.50;0.90;;;21.50;98.20;;;;;;4990525;28;20480;-80
2023/05/07 08:17:50;;;;;;;1.50;0.90;;;21.60;98.20;;;;;;4992346;28;20513;-80
2023/05/07 08:20:16;;;;;;;1.50;0.90;;;21.80;98.00;;;;;;4995124;28;20693;-80
2023/05/07 08:22:43;;;;;;;1.50;0.90;;;22.00;97.10;;;;;;4987351;28;20476;-79
2023/05/07 08:25:11;;;;;;;1.50;0.90;;;22.10;94.90;;;;;;4994921;28;20527;-82
2023/05/07 08:27:38;;;;;;;1.50;0.90;;;22.10;95.40;;;;;;4994049;28;20538;-79
2023/05/07 08:30:06;;;;;;;1.50;0.90;;;22.10;96.60;;;;;;4995513;28;20856;-81
2023/05/07 08:32:34;;;;;;;1.50;0.90;;;22.10;96.60;;;;;;4988689;28;20488;-79
2023/05/07 08:35:01;;;;;;;1.50;0.90;;;22.20;94.20;;;;;;4993294;28;20949;-79
2023/05/07 08:37:28;;;;;;;1.50;0.90;;;22.20;95.40;;;;;;4981870;28;20539;-81
2023/05/07 08:39:54;;;;;;;1.50;0.90;;;22.30;95.20;;;;;;4994042;28;20762;-81
2023/05/07 08:42:24;;;;;;;1.50;0.90;;;22.40;95.30;;;;;;4990567;28;20560;-79
2023/05/07 08:44:54;;;;;;;1.50;0.90;;;22.50;95.50;;;;;;4997229;28;20460;-82
2023/05/07 08:47:23;;;;;;;1.50;0.90;;;22.70;95.90;;;;;;5000294;28;21114;-80
2023/05/07 08:49:52;;;;;;;1.50;0.80;;;22.90;93.50;;;;;;4992851;28;20498;-80
2023/05/07 08:52:19;;;;;;;1.47;0.90;;;23.00;92.60;;;;;;4988760;28;20993;-81
2023/05/07 08:54:47;;;;;;;1.50;0.90;;;23.40;93.70;;;;;;4992560;28;20464;-79
2023/05/07 08:57:14;;;;;;;1.50;0.90;;;23.50;92.10;;;;;;4989648;28;20472;-81
2023/05/07 08:59:41;;;;;;;1.50;0.90;;;23.80;92.40;;;;;;4994736;28;20458;-85
2023/05/07 09:02:11;;;;;;;1.50;0.90;;;24.00;91.20;;;;;;4980875;28;20485;-79
2023/05/07 09:04:38;;;;;;;1.50;0.80;;;24.10;91.00;;;;;;4988146;28;20886;-78
2023/05/07 09:07:06;;;;;;;1.50;0.90;;;24.20;89.50;;;;;;4992500;28;20480;-82
2023/05/07 09:09:33;;;;;;;1.50;0.80;;;24.20;89.50;;;;;;4996004;28;20563;-81
2023/05/07 09:12:01;;;;;;;1.70;1.23;;;24.20;90.30;;;;;;4987566;28;20499;-83
2023/05/07 09:14:28;;;;;;;1.50;0.90;;;24.10;89.60;;;;;;4990573;28;20465;-82
2023/05/07 09:16:55;;;;;;;1.47;0.90;;;24.10;89.20;;;;;;4981234;28;20628;-80
2023/05/07 09:19:24;;;;;;;1.47;0.90;;;24.10;89.90;;;;;;4989026;28;20464;-82
2023/05/07 09:21:58;;;;;;;1.50;0.80;;;24.10;88.60;;;;;;4982386;28;20590;-80
2023/05/07 09:24:26;;;;;;;1.40;0.80;;;24.10;89.50;;;;;;4992124;28;20499;-83
2023/05/07 09:26:53;;;;;;;1.50;0.80;;;24.30;88.90;;;;;;4983450;28;20480;-82
2023/05/07 09:29:20;;;;;;;1.50;0.80;;;24.50;90.40;;;;;;4992610;28;20541;-82
2023/05/07 09:31:47;;;;;;;1.47;0.80;;;24.80;88.90;;;;;;4987533;28;21024;-82
2023/05/07 09:34:14;;;;;;;1.50;0.80;;;24.90;87.40;;;;;;4991324;28;20492;-82
2023/05/07 09:36:41;;;;;;;1.50;0.90;;;24.90;86.50;;;;;;4990861;28;20875;-82
2023/05/07 09:39:08;;;;;;;1.50;0.90;;;24.90;86.40;;;;;;4996443;28;21117;-80
2023/05/07 09:41:44;;;;;;;1.50;0.80;;;25.30;87.70;;;;;;4987704;28;20492;-78
2023/05/07 09:44:11;;;;;;;1.50;0.80;;;25.80;85.60;;;;;;4995374;28;20487;-78
2023/05/07 09:46:39;;;;;;;1.50;0.90;;;26.00;83.80;;;;;;5008036;28;20490;-78
2023/05/07 09:49:10;;;;;;;1.50;0.90;;;26.10;84.10;;;;;;4995123;28;20475;-79
2023/05/07 09:51:43;;;;;;;1.50;0.90;;;26.50;82.70;;;;;;4981028;28;20878;-80
2023/05/07 09:54:11;;;;;;;1.50;0.90;;;26.90;84.20;;;;;;5005554;28;20471;-80
2023/05/07 09:56:42;;;;;;;1.50;0.90;;;27.10;80.70;;;;;;4994772;28;20992;-79
2023/05/07 09:59:11;;;;;;;1.50;0.90;;;27.00;80.60;;;;;;4993762;28;20487;-82
2023/05/07 10:01:38;;;;;;;1.50;0.90;;;26.90;80.20;;;;;;4986496;28;20485;-80
2023/05/07 10:04:08;;;;;;;1.43;0.83;;;26.70;80.80;;;;;;4997821;28;20964;-81
2023/05/07 10:06:36;;;;;;;1.47;0.80;;;26.60;79.60;;;;;;4986444;28;20560;-79
2023/05/07 10:09:04;;;;;;;1.50;0.90;;;26.40;79.40;;;;;;4991609;28;20492;-80
2023/05/07 10:11:33;;;;;;;1.50;0.80;;;26.20;79.70;;;;;;4991108;28;20488;-79
2023/05/07 10:14:02;;;;;;;1.50;0.90;;;26.20;81.70;;;;;;4993448;28;20955;-80
2023/05/07 10:16:31;;;;;;;1.50;0.80;;;26.10;80.10;;;;;;4984138;28;20507;-78
2023/05/07 10:18:59;;;;;;;1.50;0.90;;;26.00;79.10;;;;;;4996344;28;20484;-79
2023/05/07 10:21:28;;;;;;;1.50;0.90;;;26.10;81.40;;;;;;4986029;28;20557;-78
2023/05/07 10:24:00;;;;;;;1.50;0.80;;;26.40;81.40;;;;;;4997314;28;20472;-78
2023/05/07 10:26:29;;;;;;;1.43;0.80;;;26.60;77.50;;;;;;4986742;28;20503;-80
2023/05/07 10:29:02;;;;;;;1.50;0.90;;;27.00;79.90;;;;;;4998614;28;20870;-78
2023/05/07 10:31:49;;;;;;;1.50;0.80;;;27.50;77.50;;;;;;4987306;28;21100;-79
2023/05/07 10:34:22;;;;;;;1.50;0.80;;;27.80;72.80;;;;;;4994102;28;20466;-80
2023/05/07 10:36:50;;;;;;;1.50;0.90;;;27.90;71.10;;;;;;4987759;28;20484;-80
2023/05/07 10:39:17;;;;;;;1.50;0.80;;;28.00;73.30;;;;;;5006099;28;20482;-80
2023/05/07 10:41:44;;;;;;;1.50;0.80;;;28.10;73.10;;;;;;4992741;28;20862;-80
2023/05/07 10:44:11;;;;;;;1.50;0.80;;;28.20;74.00;;;;;;4996865;28;20459;-80
2023/05/07 10:46:39;;;;;;;1.43;0.80;;;28.20;73.90;;;;;;4983763;28;20484;-80
2023/05/07 10:49:12;;;;;;;1.47;0.80;;;28.10;73.10;;;;;;4991873;28;21219;-77
2023/05/07 10:51:39;;;;;;;1.43;0.80;;;28.00;74.00;;;;;;4998846;28;20514;-79
2023/05/07 10:54:23;;;;;;;1.47;0.90;;;28.00;72.70;;;;;;4989601;28;20461;-80
2023/05/07 10:56:50;;;;;;;1.47;0.80;;;27.90;73.70;;;;;;4988753;28;20542;-79
2023/05/07 10:59:41;;;;;;;1.47;0.87;;;27.80;73.60;;;;;;4996933;28;20499;-79
2023/05/07 11:02:10;;;;;;;1.47;0.87;;;27.80;73.50;;;;;;4986337;28;20488;-80
2023/05/07 11:04:38;;;;;;;1.47;0.80;;;27.80;73.90;;;;;;4998859;28;20460;-80
2023/05/07 11:07:30;;;;;;;1.47;0.80;;;27.90;75.20;;;;;;4985738;28;21020;-81
2023/05/07 11:10:05;;;;;;;1.43;0.80;;;28.20;75.70;;;;;;4996505;28;20973;-84
2023/05/07 11:12:52;;;;;;;1.47;0.90;;;28.30;72.40;;;;;;4989503;28;20478;-78
2023/05/07 11:15:43;;;;;;;1.43;0.80;;;27.80;72.70;;;;;;4995416;28;20550;-84
2023/05/07 11:18:12;;;;;;;1.47;0.87;;;27.70;74.60;;;;;;4985900;28;20991;-81
2023/05/07 11:20:54;;;;;;;1.50;0.80;;;27.60;74.20;;;;;;4994987;28;20865;-80
2023/05/07 11:23:59;;;;;;;1.47;0.80;;;27.30;71.90;;;;;;4965545;28;20563;-84
2023/05/07 11:26:27;;;;;;;1.50;0.90;;;27.10;73.30;;;;;;4984439;28;20793;-83
2023/05/07 11:28:54;;;;;;;1.47;0.80;;;26.90;73.90;;;;;;4993167;28;21178;-79
2023/05/07 11:31:23;;;;;;;1.50;0.80;;;27.00;73.90;;;;;;4993114;28;20488;-83
2023/05/07 11:33:52;;;;;;;1.47;0.80;;;27.20;74.10;;;;;;4990875;28;20541;-80
2023/05/07 11:36:28;;;;;;;1.50;0.80;;;27.20;73.00;;;;;;4998623;28;21036;-82
2023/05/07 11:38:58;;;;;;;1.40;0.90;;;27.10;73.00;;;;;;4993498;28;20492;-81
2023/05/07 11:41:34;;;;;;;1.50;0.90;;;27.10;71.10;;;;;;4986351;28;20491;-79
2023/05/07 11:44:01;;;;;;;1.47;0.90;;;27.10;74.10;;;;;;4990146;28;20972;-81
2023/05/07 11:46:29;;;;;;;1.47;0.83;;;27.10;74.00;;;;;;4985791;28;20989;-80
2023/05/07 11:48:58;;;;;;;1.50;0.80;;;27.00;73.20;;;;;;4988485;28;20583;-80
2023/05/07 11:51:26;;;;;;;1.47;0.90;;;26.80;73.30;;;;;;4987837;28;20488;-81
2023/05/07 11:53:53;;;;;;;1.47;0.90;;;26.60;73.70;;;;;;4993446;28;21023;-85
2023/05/07 11:56:20;;;;;;;1.43;0.80;;;26.70;76.60;;;;;;4987036;28;20523;-85
2023/05/07 11:58:49;;;;;;;1.50;0.90;;;26.60;74.60;;;;;;4990782;28;20500;-80
2023/05/07 12:01:18;;;;;;;1.50;0.83;;;26.60;75.70;;;;;;4991446;28;20480;-81
2023/05/07 12:03:46;;;;;;;1.47;0.80;;;26.80;76.90;;;;;;4989424;28;20539;-82
2023/05/07 12:06:16;;;;;;;2.57;1.47;;;26.90;75.60;;;;;;4987825;28;21214;-81
2023/05/07 12:08:44;;;;;;;1.43;0.90;;;27.00;76.40;;;;;;4990368;28;20480;-85
2023/05/07 12:11:14;;;;;;;1.40;0.80;;;27.10;75.90;;;;;;4992322;28;20474;-81
2023/05/07 12:13:42;;;;;;;1.47;0.80;;;27.30;75.40;;;;;;4992813;28;20908;-80
2023/05/07 12:16:10;;;;;;;1.47;0.80;;;27.50;75.50;;;;;;4987549;28;20498;-78
2023/05/07 12:18:38;;;;;;;1.43;0.90;;;27.50;74.50;;;;;;4984937;28;20503;-79
2023/05/07 12:21:06;;;;;;;1.47;0.80;;;27.50;74.90;;;;;;4985901;28;20564;-80
2023/05/07 12:23:35;;;;;;;1.60;0.93;;;27.60;75.30;;;;;;4985366;28;20880;-80
2023/05/07 12:26:03;;;;;;;1.47;0.80;;;27.60;74.80;;;;;;4985626;28;20465;-81
2023/05/07 12:28:30;;;;;;;1.47;0.80;;;27.60;75.70;;;;;;4990255;28;20487;-80
2023/05/07 12:30:58;;;;;;;1.43;0.80;;;27.50;76.20;;;;;;4993583;28;21201;-82
2023/05/07 12:33:27;;;;;;;1.43;0.90;;;27.30;75.10;;;;;;4988470;28;20468;-81
2023/05/07 12:35:56;;;;;;;1.40;0.90;;;27.10;76.70;;;;;;4981285;28;20490;-80
2023/05/07 12:38:23;;;;;;;1.50;0.90;;;27.00;76.20;;;;;;4990300;28;20496;-81
2023/05/07 12:40:54;;;;;;;1.50;0.80;;;26.80;76.20;;;;;;4987308;28;21003;-80
2023/05/07 12:43:22;;;;;;;1.70;1.03;;;26.50;77.00;;;;;;4991046;28;20559;-82
2023/05/07 12:45:51;;;;;;;1.50;0.90;;;26.40;77.30;;;;;;4978085;28;20514;-79
2023/05/07 12:48:18;;;;;;;1.50;0.87;;;26.20;77.40;;;;;;4987213;28;20491;-80
2023/05/07 12:50:45;;;;;;;1.43;0.80;;;25.90;77.50;;;;;;4987353;28;20546;-82
2023/05/07 12:53:13;;;;;;;1.43;0.80;;;25.70;78.80;;;;;;4961897;28;21115;-78